sensor_id;sensor_type;location;lat;lon;timestamp;pressure;altitude;pressure_sealevel;temperature
69545;BMP180;56766;52.260;20.746;2023-09-19T00:00:46;99781.00;;;17.20
69545;BMP180;56766;52.260;20.746;2023-09-19T00:03:38;99783.00;;;17.20
69545;BMP180;56766;52.260;20.746;2023-09-19T00:06:09;99782.20;;;17.16
69545;BMP180;56766;52.260;20.746;2023-09-19T00:08:37;99777.60;;;17.20
69545;BMP180;56766;52.260;20.746;2023-09-19T00:11:03;99774.60;;;17.14
69545;BMP180;56766;52.260;20.746;2023-09-19T00:13:32;99779.00;;;17.10
69545;BMP180;56766;52.260;20.746;2023-09-19T00:16:00;99780.80;;;17.10
69545;BMP180;56766;52.260;20.746;2023-09-19T00:18:29;99778.60;;;17.10
69545;BMP180;56766;52.260;20.746;2023-09-19T00:20:59;99781.60;;;17.10
69545;BMP180;56766;52.260;20.746;2023-09-19T00:23:25;99777.80;;;17.10
69545;BMP180;56766;52.260;20.746;2023-09-19T00:25:52;99778.60;;;17.10
69545;BMP180;56766;52.260;20.746;2023-09-19T00:28:37;99775.00;;;17.10
69545;BMP180;56766;52.260;20.746;2023-09-19T00:31:13;99772.00;;;17.10
69545;BMP180;56766;52.260;20.746;2023-09-19T00:33:41;99769.20;;;17.10
69545;BMP180;56766;52.260;20.746;2023-09-19T00:36:09;99771.40;;;17.10
69545;BMP180;56766;52.260;20.746;2023-09-19T00:38:35;99769.40;;;17.10
69545;BMP180;56766;52.260;20.746;2023-09-19T00:41:03;99770.00;;;17.10
69545;BMP180;56766;52.260;20.746;2023-09-19T00:43:31;99770.80;;;17.10
69545;BMP180;56766;52.260;20.746;2023-09-19T00:46:00;99772.40;;;17.02
69545;BMP180;56766;52.260;20.746;2023-09-19T00:48:30;99769.00;;;17.00
69545;BMP180;56766;52.260;20.746;2023-09-19T00:51:04;99763.00;;;17.00
69545;BMP180;56766;52.260;20.746;2023-09-19T00:53:32;99757.80;;;17.00
69545;BMP180;56766;52.260;20.746;2023-09-19T00:56:03;99753.00;;;17.00
69545;BMP180;56766;52.260;20.746;2023-09-19T00:58:35;99753.00;;;17.00
69545;BMP180;56766;52.260;20.746;2023-09-19T01:01:04;99753.00;;;17.00
69545;BMP180;56766;52.260;20.746;2023-09-19T01:03:34;99752.20;;;17.00
69545;BMP180;56766;52.260;20.746;2023-09-19T01:06:01;99747.80;;;16.98
69545;BMP180;56766;52.260;20.746;2023-09-19T01:08:29;99739.80;;;16.98
69545;BMP180;56766;52.260;20.746;2023-09-19T01:11:12;99744.00;;;17.00
69545;BMP180;56766;52.260;20.746;2023-09-19T01:14:05;99739.60;;;17.00
69545;BMP180;56766;52.260;20.746;2023-09-19T01:17:05;99740.00;;;17.00
69545;BMP180;56766;52.260;20.746;2023-09-19T01:23:11;99731.60;;;17.00
69545;BMP180;56766;52.260;20.746;2023-09-19T01:26:07;99726.20;;;17.00
69545;BMP180;56766;52.260;20.746;2023-09-19T01:28:54;99724.40;;;17.02
69545;BMP180;56766;52.260;20.746;2023-09-19T01:31:28;99717.00;;;17.00
69545;BMP180;56766;52.260;20.746;2023-09-19T01:34:02;99719.60;;;17.00
69545;BMP180;56766;52.260;20.746;2023-09-19T01:36:37;99717.40;;;17.04
69545;BMP180;56766;52.260;20.746;2023-09-19T01:39:11;99714.00;;;17.04
69545;BMP180;56766;52.260;20.746;2023-09-19T01:44:55;99705.60;;;17.02
69545;BMP180;56766;52.260;20.746;2023-09-19T01:47:41;99702.80;;;17.10
69545;BMP180;56766;52.260;20.746;2023-09-19T01:53:03;99704.00;;;17.08
69545;BMP180;56766;52.260;20.746;2023-09-19T01:55:41;99699.40;;;17.04
69545;BMP180;56766;52.260;20.746;2023-09-19T01:58:34;99691.60;;;17.06
69545;BMP180;56766;52.260;20.746;2023-09-19T02:01:05;99694.60;;;17.04
69545;BMP180;56766;52.260;20.746;2023-09-19T02:03:36;99695.80;;;17.00
69545;BMP180;56766;52.260;20.746;2023-09-19T02:06:04;99694.80;;;17.00
69545;BMP180;56766;52.260;20.746;2023-09-19T02:08:32;99699.20;;;17.02
69545;BMP180;56766;52.260;20.746;2023-09-19T02:11:00;99692.40;;;17.00
69545;BMP180;56766;52.260;20.746;2023-09-19T02:13:26;99684.80;;;17.00
69545;BMP180;56766;52.260;20.746;2023-09-19T02:15:54;99683.80;;;17.00
69545;BMP180;56766;52.260;20.746;2023-09-19T02:18:22;99688.60;;;17.00
69545;BMP180;56766;52.260;20.746;2023-09-19T02:20:49;99685.60;;;17.00
69545;BMP180;56766;52.260;20.746;2023-09-19T02:23:17;99678.40;;;17.00
69545;BMP180;56766;52.260;20.746;2023-09-19T02:25:55;99672.80;;;16.94
69545;BMP180;56766;52.260;20.746;2023-09-19T02:28:24;99672.60;;;16.90
69545;BMP180;56766;52.260;20.746;2023-09-19T02:30:56;99671.20;;;16.90
69545;BMP180;56766;52.260;20.746;2023-09-19T02:33:23;99669.00;;;16.90
69545;BMP180;56766;52.260;20.746;2023-09-19T02:35:54;99662.20;;;16.90
69545;BMP180;56766;52.260;20.746;2023-09-19T02:38:25;99662.40;;;16.88
69545;BMP180;56766;52.260;20.746;2023-09-19T02:40:53;99663.60;;;16.80
69545;BMP180;56766;52.260;20.746;2023-09-19T02:43:22;99664.80;;;16.80
69545;BMP180;56766;52.260;20.746;2023-09-19T02:45:50;99666.20;;;16.80
69545;BMP180;56766;52.260;20.746;2023-09-19T02:48:17;99655.60;;;16.80
69545;BMP180;56766;52.260;20.746;2023-09-19T02:50:45;99653.40;;;16.72
69545;BMP180;56766;52.260;20.746;2023-09-19T02:53:12;99659.80;;;16.70
69545;BMP180;56766;52.260;20.746;2023-09-19T02:55:39;99661.40;;;16.70
69545;BMP180;56766;52.260;20.746;2023-09-19T02:58:07;99659.00;;;16.70
69545;BMP180;56766;52.260;20.746;2023-09-19T03:00:41;99656.00;;;16.60
69545;BMP180;56766;52.260;20.746;2023-09-19T03:03:08;99646.20;;;16.60
69545;BMP180;56766;52.260;20.746;2023-09-19T03:05:35;99645.80;;;16.50
69545;BMP180;56766;52.260;20.746;2023-09-19T03:08:02;99644.40;;;16.50
69545;BMP180;56766;52.260;20.746;2023-09-19T03:10:29;99646.60;;;16.50
69545;BMP180;56766;52.260;20.746;2023-09-19T03:12:58;99643.40;;;16.50
69545;BMP180;56766;52.260;20.746;2023-09-19T03:15:28;99643.60;;;16.48
69545;BMP180;56766;52.260;20.746;2023-09-19T03:17:55;99641.00;;;16.40
69545;BMP180;56766;52.260;20.746;2023-09-19T03:20:22;99634.00;;;16.40
69545;BMP180;56766;52.260;20.746;2023-09-19T03:22:49;99638.80;;;16.40
69545;BMP180;56766;52.260;20.746;2023-09-19T03:25:15;99635.80;;;16.40
69545;BMP180;56766;52.260;20.746;2023-09-19T03:27:43;99637.80;;;16.30
69545;BMP180;56766;52.260;20.746;2023-09-19T03:30:10;99627.20;;;16.30
69545;BMP180;56766;52.260;20.746;2023-09-19T03:32:49;99638.40;;;16.30
69545;BMP180;56766;52.260;20.746;2023-09-19T03:35:17;99636.00;;;16.30
69545;BMP180;56766;52.260;20.746;2023-09-19T03:37:44;99632.40;;;16.26
69545;BMP180;56766;52.260;20.746;2023-09-19T03:40:12;99631.60;;;16.20
69545;BMP180;56766;52.260;20.746;2023-09-19T03:42:40;99626.20;;;16.20
69545;BMP180;56766;52.260;20.746;2023-09-19T03:45:08;99631.00;;;16.20
69545;BMP180;56766;52.260;20.746;2023-09-19T03:47:39;99635.40;;;16.20
69545;BMP180;56766;52.260;20.746;2023-09-19T03:50:07;99633.20;;;16.12
69545;BMP180;56766;52.260;20.746;2023-09-19T03:52:34;99632.80;;;16.14
69545;BMP180;56766;52.260;20.746;2023-09-19T03:55:02;99627.80;;;16.14
69545;BMP180;56766;52.260;20.746;2023-09-19T03:57:38;99630.60;;;16.20
69545;BMP180;56766;52.260;20.746;2023-09-19T04:00:05;99620.80;;;16.20
69545;BMP180;56766;52.260;20.746;2023-09-19T04:02:39;99620.40;;;16.20
69545;BMP180;56766;52.260;20.746;2023-09-19T04:05:06;99613.20;;;16.20
69545;BMP180;56766;52.260;20.746;2023-09-19T04:07:33;99615.40;;;16.20
69545;BMP180;56766;52.260;20.746;2023-09-19T04:10:00;99610.80;;;16.20
69545;BMP180;56766;52.260;20.746;2023-09-19T04:12:27;99609.40;;;16.20
69545;BMP180;56766;52.260;20.746;2023-09-19T04:14:54;99611.40;;;16.20
69545;BMP180;56766;52.260;20.746;2023-09-19T04:17:21;99608.60;;;16.20
69545;BMP180;56766;52.260;20.746;2023-09-19T04:19:47;99605.80;;;16.20
69545;BMP180;56766;52.260;20.746;2023-09-19T04:22:14;99608.00;;;16.20
69545;BMP180;56766;52.260;20.746;2023-09-19T04:24:40;99596.00;;;16.12
69545;BMP180;56766;52.260;20.746;2023-09-19T04:27:07;99595.60;;;16.10
69545;BMP180;56766;52.260;20.746;2023-09-19T04:29:35;99603.80;;;16.10
69545;BMP180;56766;52.260;20.746;2023-09-19T04:32:02;99595.00;;;16.10
69545;BMP180;56766;52.260;20.746;2023-09-19T04:34:32;99593.40;;;16.10
69545;BMP180;56766;52.260;20.746;2023-09-19T04:37:00;99596.20;;;16.10
69545;BMP180;56766;52.260;20.746;2023-09-19T04:39:28;99593.20;;;16.10
69545;BMP180;56766;52.260;20.746;2023-09-19T04:41:55;99590.80;;;16.10
69545;BMP180;56766;52.260;20.746;2023-09-19T04:44:21;99588.80;;;16.10
69545;BMP180;56766;52.260;20.746;2023-09-19T04:46:48;99586.40;;;16.10
69545;BMP180;56766;52.260;20.746;2023-09-19T04:49:15;99590.40;;;16.20
69545;BMP180;56766;52.260;20.746;2023-09-19T04:51:41;99582.40;;;16.20
69545;BMP180;56766;52.260;20.746;2023-09-19T04:54:09;99592.00;;;16.30
69545;BMP180;56766;52.260;20.746;2023-09-19T04:56:35;99590.40;;;16.40
69545;BMP180;56766;52.260;20.746;2023-09-19T04:59:02;99585.60;;;16.50
69545;BMP180;56766;52.260;20.746;2023-09-19T05:01:29;99582.20;;;16.60
69545;BMP180;56766;52.260;20.746;2023-09-19T05:03:56;99581.20;;;16.72
69545;BMP180;56766;52.260;20.746;2023-09-19T05:06:23;99585.20;;;16.88
69545;BMP180;56766;52.260;20.746;2023-09-19T05:08:50;99590.20;;;17.00
69545;BMP180;56766;52.260;20.746;2023-09-19T05:11:21;99588.00;;;17.10
69545;BMP180;56766;52.260;20.746;2023-09-19T05:13:50;99589.40;;;17.30
69545;BMP180;56766;52.260;20.746;2023-09-19T05:16:16;99587.20;;;17.46
69545;BMP180;56766;52.260;20.746;2023-09-19T05:18:43;99585.60;;;17.60
69545;BMP180;56766;52.260;20.746;2023-09-19T05:21:10;99588.60;;;17.80
69545;BMP180;56766;52.260;20.746;2023-09-19T05:23:37;99584.00;;;17.92
69545;BMP180;56766;52.260;20.746;2023-09-19T05:26:03;99592.80;;;18.10
69545;BMP180;56766;52.260;20.746;2023-09-19T05:28:31;99605.40;;;18.20
69545;BMP180;56766;52.260;20.746;2023-09-19T05:31:01;99602.20;;;18.24
69545;BMP180;56766;52.260;20.746;2023-09-19T05:33:31;99596.40;;;18.30
69545;BMP180;56766;52.260;20.746;2023-09-19T05:35:58;99601.00;;;18.40
69545;BMP180;56766;52.260;20.746;2023-09-19T05:38:25;99609.60;;;18.50
69545;BMP180;56766;52.260;20.746;2023-09-19T05:40:53;99606.80;;;18.60
69545;BMP180;56766;52.260;20.746;2023-09-19T05:43:20;99608.00;;;18.70
69545;BMP180;56766;52.260;20.746;2023-09-19T05:45:47;99609.40;;;18.80
69545;BMP180;56766;52.260;20.746;2023-09-19T05:48:14;99602.20;;;18.92
69545;BMP180;56766;52.260;20.746;2023-09-19T05:50:43;99594.40;;;19.04
69545;BMP180;56766;52.260;20.746;2023-09-19T05:53:10;99592.00;;;19.10
69545;BMP180;56766;52.260;20.746;2023-09-19T05:55:41;99591.60;;;19.20
69545;BMP180;56766;52.260;20.746;2023-09-19T05:58:08;99591.60;;;19.30
69545;BMP180;56766;52.260;20.746;2023-09-19T06:00:36;99591.40;;;19.30
69545;BMP180;56766;52.260;20.746;2023-09-19T06:03:03;99584.00;;;19.30
69545;BMP180;56766;52.260;20.746;2023-09-19T06:05:30;99586.00;;;19.38
69545;BMP180;56766;52.260;20.746;2023-09-19T06:08:00;99589.60;;;19.40
69545;BMP180;56766;52.260;20.746;2023-09-19T06:10:27;99600.80;;;19.50
69545;BMP180;56766;52.260;20.746;2023-09-19T06:12:58;99594.20;;;19.70
69545;BMP180;56766;52.260;20.746;2023-09-19T06:15:25;99599.40;;;19.88
69545;BMP180;56766;52.260;20.746;2023-09-19T06:17:55;99602.40;;;20.02
69545;BMP180;56766;52.260;20.746;2023-09-19T06:20:24;99597.60;;;20.20
69545;BMP180;56766;52.260;20.746;2023-09-19T06:22:53;99602.20;;;20.38
69545;BMP180;56766;52.260;20.746;2023-09-19T06:25:20;99606.20;;;20.50
69545;BMP180;56766;52.260;20.746;2023-09-19T06:27:50;99607.80;;;20.70
69545;BMP180;56766;52.260;20.746;2023-09-19T06:30:23;99606.60;;;20.90
69545;BMP180;56766;52.260;20.746;2023-09-19T06:33:00;99604.80;;;21.00
69545;BMP180;56766;52.260;20.746;2023-09-19T06:35:29;99603.20;;;21.10
69545;BMP180;56766;52.260;20.746;2023-09-19T06:38:02;99607.80;;;21.28
69545;BMP180;56766;52.260;20.746;2023-09-19T06:40:30;99613.00;;;21.30
69545;BMP180;56766;52.260;20.746;2023-09-19T06:42:58;99614.80;;;21.42
69545;BMP180;56766;52.260;20.746;2023-09-19T06:45:24;99616.00;;;21.60
69545;BMP180;56766;52.260;20.746;2023-09-19T06:47:53;99611.60;;;21.70
69545;BMP180;56766;52.260;20.746;2023-09-19T06:50:24;99622.40;;;21.90
69545;BMP180;56766;52.260;20.746;2023-09-19T06:52:53;99622.20;;;22.02
69545;BMP180;56766;52.260;20.746;2023-09-19T06:55:22;99614.60;;;22.20
69545;BMP180;56766;52.260;20.746;2023-09-19T06:57:54;99617.20;;;22.30
69545;BMP180;56766;52.260;20.746;2023-09-19T07:00:21;99618.00;;;22.40
69545;BMP180;56766;52.260;20.746;2023-09-19T07:03:05;99617.00;;;22.40
69545;BMP180;56766;52.260;20.746;2023-09-19T07:05:35;99619.00;;;22.50
69545;BMP180;56766;52.260;20.746;2023-09-19T07:08:10;99620.60;;;22.50
69545;BMP180;56766;52.260;20.746;2023-09-19T07:10:41;99620.00;;;22.60
69545;BMP180;56766;52.260;20.746;2023-09-19T07:13:15;99625.00;;;22.70
69545;BMP180;56766;52.260;20.746;2023-09-19T07:15:44;99627.00;;;22.70
69545;BMP180;56766;52.260;20.746;2023-09-19T07:18:17;99630.40;;;22.76
69545;BMP180;56766;52.260;20.746;2023-09-19T07:20:45;99637.40;;;22.90
69545;BMP180;56766;52.260;20.746;2023-09-19T07:23:19;99637.40;;;23.06
69545;BMP180;56766;52.260;20.746;2023-09-19T07:25:49;99631.80;;;23.30
69545;BMP180;56766;52.260;20.746;2023-09-19T07:28:17;99627.20;;;23.50
69545;BMP180;56766;52.260;20.746;2023-09-19T07:30:44;99638.40;;;23.70
69545;BMP180;56766;52.260;20.746;2023-09-19T07:33:11;99643.20;;;23.70
69545;BMP180;56766;52.260;20.746;2023-09-19T07:35:39;99655.00;;;23.50
69545;BMP180;56766;52.260;20.746;2023-09-19T07:38:08;99651.20;;;23.30
69545;BMP180;56766;52.260;20.746;2023-09-19T07:40:37;99654.60;;;23.10
69545;BMP180;56766;52.260;20.746;2023-09-19T07:43:05;99658.40;;;23.00
69545;BMP180;56766;52.260;20.746;2023-09-19T07:45:33;99662.60;;;22.90
69545;BMP180;56766;52.260;20.746;2023-09-19T07:48:00;99668.00;;;22.84
69545;BMP180;56766;52.260;20.746;2023-09-19T07:50:30;99672.20;;;22.84
69545;BMP180;56766;52.260;20.746;2023-09-19T07:52:57;99670.20;;;22.80
69545;BMP180;56766;52.260;20.746;2023-09-19T07:55:25;99667.40;;;22.80
69545;BMP180;56766;52.260;20.746;2023-09-19T07:57:52;99670.40;;;22.70
69545;BMP180;56766;52.260;20.746;2023-09-19T08:00:20;99673.40;;;22.54
69545;BMP180;56766;52.260;20.746;2023-09-19T08:02:47;99675.60;;;22.30
69545;BMP180;56766;52.260;20.746;2023-09-19T08:05:18;99674.60;;;22.18
69545;BMP180;56766;52.260;20.746;2023-09-19T08:07:46;99683.00;;;22.00
69545;BMP180;56766;52.260;20.746;2023-09-19T08:10:16;99689.00;;;21.90
69545;BMP180;56766;52.260;20.746;2023-09-19T08:12:48;99699.00;;;21.72
69545;BMP180;56766;52.260;20.746;2023-09-19T08:15:18;99701.00;;;21.56
69545;BMP180;56766;52.260;20.746;2023-09-19T08:17:48;99708.40;;;21.40
69545;BMP180;56766;52.260;20.746;2023-09-19T08:20:16;99705.40;;;21.20
69545;BMP180;56766;52.260;20.746;2023-09-19T08:22:50;99713.40;;;21.10
69545;BMP180;56766;52.260;20.746;2023-09-19T08:25:26;99717.00;;;20.90
69545;BMP180;56766;52.260;20.746;2023-09-19T08:27:55;99721.20;;;20.80
69545;BMP180;56766;52.260;20.746;2023-09-19T08:30:24;99725.80;;;20.66
69545;BMP180;56766;52.260;20.746;2023-09-19T08:33:01;99731.40;;;20.60
69545;BMP180;56766;52.260;20.746;2023-09-19T08:35:27;99731.00;;;20.50
69545;BMP180;56766;52.260;20.746;2023-09-19T08:37:54;99735.80;;;20.48
69545;BMP180;56766;52.260;20.746;2023-09-19T08:40:27;99732.20;;;20.48
69545;BMP180;56766;52.260;20.746;2023-09-19T08:42:56;99726.20;;;20.50
69545;BMP180;56766;52.260;20.746;2023-09-19T08:45:25;99721.20;;;20.60
69545;BMP180;56766;52.260;20.746;2023-09-19T08:48:25;99715.00;;;20.60
69545;BMP180;56766;52.260;20.746;2023-09-19T08:51:07;99717.40;;;20.66
69545;BMP180;56766;52.260;20.746;2023-09-19T08:53:58;99709.00;;;20.58
69545;BMP180;56766;52.260;20.746;2023-09-19T08:56:33;99704.00;;;20.50
69545;BMP180;56766;52.260;20.746;2023-09-19T08:59:03;99710.80;;;20.30
69545;BMP180;56766;52.260;20.746;2023-09-19T09:01:40;99719.40;;;20.20
69545;BMP180;56766;52.260;20.746;2023-09-19T09:04:09;99712.00;;;20.10
69545;BMP180;56766;52.260;20.746;2023-09-19T09:06:42;99714.60;;;20.00
69545;BMP180;56766;52.260;20.746;2023-09-19T09:09:10;99722.00;;;20.00
69545;BMP180;56766;52.260;20.746;2023-09-19T09:11:38;99729.40;;;19.90
69545;BMP180;56766;52.260;20.746;2023-09-19T09:14:07;99736.20;;;19.88
69545;BMP180;56766;52.260;20.746;2023-09-19T09:16:34;99740.40;;;19.80
69545;BMP180;56766;52.260;20.746;2023-09-19T09:19:01;99741.40;;;19.80
69545;BMP180;56766;52.260;20.746;2023-09-19T09:21:28;99745.20;;;19.80
69545;BMP180;56766;52.260;20.746;2023-09-19T09:23:55;99746.00;;;19.80
69545;BMP180;56766;52.260;20.746;2023-09-19T09:29:03;99762.00;;;19.90
69545;BMP180;56766;52.260;20.746;2023-09-19T09:31:30;99771.80;;;19.94
69545;BMP180;56766;52.260;20.746;2023-09-19T09:33:58;99772.00;;;19.94
69545;BMP180;56766;52.260;20.746;2023-09-19T09:36:37;99775.20;;;20.00
69545;BMP180;56766;52.260;20.746;2023-09-19T09:39:05;99781.00;;;20.10
69545;BMP180;56766;52.260;20.746;2023-09-19T09:41:51;99784.00;;;20.20
69545;BMP180;56766;52.260;20.746;2023-09-19T09:44:18;99779.80;;;20.20
69545;BMP180;56766;52.260;20.746;2023-09-19T09:46:47;99779.60;;;20.20
69545;BMP180;56766;52.260;20.746;2023-09-19T09:49:27;99781.20;;;20.20
69545;BMP180;56766;52.260;20.746;2023-09-19T09:52:05;99783.40;;;20.20
69545;BMP180;56766;52.260;20.746;2023-09-19T09:55:03;99782.20;;;20.30
69545;BMP180;56766;52.260;20.746;2023-09-19T09:57:34;99787.60;;;20.40
69545;BMP180;56766;52.260;20.746;2023-09-19T10:00:02;99787.00;;;20.46
69545;BMP180;56766;52.260;20.746;2023-09-19T10:02:36;99782.00;;;20.50
69545;BMP180;56766;52.260;20.746;2023-09-19T10:05:18;99784.80;;;20.50
69545;BMP180;56766;52.260;20.746;2023-09-19T10:08:11;99780.60;;;20.50
69545;BMP180;56766;52.260;20.746;2023-09-19T10:10:46;99780.80;;;20.50
69545;BMP180;56766;52.260;20.746;2023-09-19T10:13:32;99778.80;;;20.60
69545;BMP180;56766;52.260;20.746;2023-09-19T10:16:08;99780.40;;;20.68
69545;BMP180;56766;52.260;20.746;2023-09-19T10:18:36;99776.20;;;20.76
69545;BMP180;56766;52.260;20.746;2023-09-19T10:21:09;99779.60;;;20.80
69545;BMP180;56766;52.260;20.746;2023-09-19T10:23:40;99782.60;;;20.90
69545;BMP180;56766;52.260;20.746;2023-09-19T10:26:09;99783.20;;;20.90
69545;BMP180;56766;52.260;20.746;2023-09-19T10:28:38;99779.80;;;20.90
69545;BMP180;56766;52.260;20.746;2023-09-19T10:31:06;99784.40;;;21.00
69545;BMP180;56766;52.260;20.746;2023-09-19T10:33:37;99781.40;;;21.10
69545;BMP180;56766;52.260;20.746;2023-09-19T10:36:05;99778.00;;;21.20
69545;BMP180;56766;52.260;20.746;2023-09-19T10:38:35;99783.80;;;21.34
69545;BMP180;56766;52.260;20.746;2023-09-19T10:41:05;99787.20;;;21.50
69545;BMP180;56766;52.260;20.746;2023-09-19T10:43:33;99800.20;;;21.60
69545;BMP180;56766;52.260;20.746;2023-09-19T10:46:07;99802.80;;;21.70
69545;BMP180;56766;52.260;20.746;2023-09-19T10:48:39;99807.00;;;21.90
69545;BMP180;56766;52.260;20.746;2023-09-19T10:51:17;99804.20;;;22.00
69545;BMP180;56766;52.260;20.746;2023-09-19T10:53:59;99810.20;;;22.04
69545;BMP180;56766;52.260;20.746;2023-09-19T10:56:36;99810.20;;;22.12
69545;BMP180;56766;52.260;20.746;2023-09-19T10:59:11;99809.60;;;22.10
69545;BMP180;56766;52.260;20.746;2023-09-19T11:01:53;99813.60;;;22.06
69545;BMP180;56766;52.260;20.746;2023-09-19T11:04:26;99814.20;;;22.00
69545;BMP180;56766;52.260;20.746;2023-09-19T11:07:20;99808.60;;;22.00
69545;BMP180;56766;52.260;20.746;2023-09-19T11:09:53;99798.20;;;21.90
69545;BMP180;56766;52.260;20.746;2023-09-19T11:12:48;99800.40;;;22.00
69545;BMP180;56766;52.260;20.746;2023-09-19T11:16:03;99797.40;;;22.10
69545;BMP180;56766;52.260;20.746;2023-09-19T11:19:01;99800.40;;;22.30
69545;BMP180;56766;52.260;20.746;2023-09-19T11:26:49;99799.60;;;22.40
69545;BMP180;56766;52.260;20.746;2023-09-19T11:29:29;99799.20;;;22.50
69545;BMP180;56766;52.260;20.746;2023-09-19T11:31:58;99797.80;;;22.60
69545;BMP180;56766;52.260;20.746;2023-09-19T11:34:46;99800.60;;;22.50
69545;BMP180;56766;52.260;20.746;2023-09-19T11:40:06;99801.40;;;22.30
69545;BMP180;56766;52.260;20.746;2023-09-19T11:42:48;99811.60;;;22.20
69545;BMP180;56766;52.260;20.746;2023-09-19T11:48:08;99810.80;;;22.20
69545;BMP180;56766;52.260;20.746;2023-09-19T11:50:36;99804.40;;;22.30
69545;BMP180;56766;52.260;20.746;2023-09-19T11:53:11;99809.80;;;22.40
69545;BMP180;56766;52.260;20.746;2023-09-19T11:55:40;99809.20;;;22.58
69545;BMP180;56766;52.260;20.746;2023-09-19T11:58:09;99809.80;;;22.70
69545;BMP180;56766;52.260;20.746;2023-09-19T12:00:44;99813.20;;;22.90
69545;BMP180;56766;52.260;20.746;2023-09-19T12:03:12;99817.60;;;23.06
69545;BMP180;56766;52.260;20.746;2023-09-19T12:05:41;99824.60;;;23.10
69545;BMP180;56766;52.260;20.746;2023-09-19T12:08:08;99826.40;;;22.90
69545;BMP180;56766;52.260;20.746;2023-09-19T12:10:50;99827.40;;;22.80
69545;BMP180;56766;52.260;20.746;2023-09-19T12:13:19;99828.20;;;22.60
69545;BMP180;56766;52.260;20.746;2023-09-19T12:15:47;99829.00;;;22.60
69545;BMP180;56766;52.260;20.746;2023-09-19T12:18:30;99828.60;;;22.70
69545;BMP180;56766;52.260;20.746;2023-09-19T12:20:58;99828.80;;;22.90
69545;BMP180;56766;52.260;20.746;2023-09-19T12:23:25;99835.40;;;23.00
69545;BMP180;56766;52.260;20.746;2023-09-19T12:25:55;99830.80;;;23.00
69545;BMP180;56766;52.260;20.746;2023-09-19T12:28:27;99832.60;;;23.00
69545;BMP180;56766;52.260;20.746;2023-09-19T12:31:07;99825.60;;;23.00
69545;BMP180;56766;52.260;20.746;2023-09-19T12:33:34;99825.80;;;23.10
69545;BMP180;56766;52.260;20.746;2023-09-19T12:36:21;99830.60;;;23.20
69545;BMP180;56766;52.260;20.746;2023-09-19T12:38:58;99830.60;;;23.20
69545;BMP180;56766;52.260;20.746;2023-09-19T12:41:27;99831.20;;;23.20
69545;BMP180;56766;52.260;20.746;2023-09-19T12:43:54;99831.20;;;23.10
69545;BMP180;56766;52.260;20.746;2023-09-19T12:46:22;99831.80;;;23.00
69545;BMP180;56766;52.260;20.746;2023-09-19T12:49:18;99838.20;;;22.88
69545;BMP180;56766;52.260;20.746;2023-09-19T12:51:47;99830.80;;;22.70
69545;BMP180;56766;52.260;20.746;2023-09-19T12:54:14;99836.60;;;22.60
69545;BMP180;56766;52.260;20.746;2023-09-19T12:56:45;99833.00;;;22.50
69545;BMP180;56766;52.260;20.746;2023-09-19T12:59:13;99832.80;;;22.60
69545;BMP180;56766;52.260;20.746;2023-09-19T13:01:42;99831.40;;;22.60
69545;BMP180;56766;52.260;20.746;2023-09-19T13:04:21;99831.60;;;22.70
69545;BMP180;56766;52.260;20.746;2023-09-19T13:06:56;99828.20;;;22.80
69545;BMP180;56766;52.260;20.746;2023-09-19T13:09:28;99826.80;;;22.80
69545;BMP180;56766;52.260;20.746;2023-09-19T13:12:01;99829.80;;;22.90
69545;BMP180;56766;52.260;20.746;2023-09-19T13:14:30;99830.80;;;23.00
69545;BMP180;56766;52.260;20.746;2023-09-19T13:17:08;99833.80;;;23.00
69545;BMP180;56766;52.260;20.746;2023-09-19T13:19:49;99835.60;;;23.10
69545;BMP180;56766;52.260;20.746;2023-09-19T13:22:44;99830.80;;;23.10
69545;BMP180;56766;52.260;20.746;2023-09-19T13:25:18;99831.60;;;23.00
69545;BMP180;56766;52.260;20.746;2023-09-19T13:27:57;99833.80;;;22.90
69545;BMP180;56766;52.260;20.746;2023-09-19T13:30:27;99835.80;;;22.80
69545;BMP180;56766;52.260;20.746;2023-09-19T13:33:10;99830.40;;;22.80
69545;BMP180;56766;52.260;20.746;2023-09-19T13:35:39;99835.20;;;22.80
69545;BMP180;56766;52.260;20.746;2023-09-19T13:38:09;99843.20;;;22.70
69545;BMP180;56766;52.260;20.746;2023-09-19T13:40:40;99840.60;;;22.70
69545;BMP180;56766;52.260;20.746;2023-09-19T13:43:10;99842.60;;;22.60
69545;BMP180;56766;52.260;20.746;2023-09-19T13:45:40;99845.40;;;22.60
69545;BMP180;56766;52.260;20.746;2023-09-19T13:48:10;99844.80;;;22.50
69545;BMP180;56766;52.260;20.746;2023-09-19T13:50:41;99847.40;;;22.40
69545;BMP180;56766;52.260;20.746;2023-09-19T13:53:08;99844.20;;;22.20
69545;BMP180;56766;52.260;20.746;2023-09-19T13:55:35;99848.40;;;22.00
69545;BMP180;56766;52.260;20.746;2023-09-19T13:58:04;99850.20;;;21.90
69545;BMP180;56766;52.260;20.746;2023-09-19T14:00:33;99846.00;;;21.70
69545;BMP180;56766;52.260;20.746;2023-09-19T14:03:01;99851.80;;;21.60
69545;BMP180;56766;52.260;20.746;2023-09-19T14:05:27;99852.20;;;21.60
69545;BMP180;56766;52.260;20.746;2023-09-19T14:07:54;99855.20;;;21.60
69545;BMP180;56766;52.260;20.746;2023-09-19T14:10:22;99853.60;;;21.50
69545;BMP180;56766;52.260;20.746;2023-09-19T14:12:49;99857.20;;;21.50
69545;BMP180;56766;52.260;20.746;2023-09-19T14:15:16;99849.20;;;21.50
69545;BMP180;56766;52.260;20.746;2023-09-19T14:17:43;99847.00;;;21.50
69545;BMP180;56766;52.260;20.746;2023-09-19T14:20:11;99847.60;;;21.60
69545;BMP180;56766;52.260;20.746;2023-09-19T14:22:38;99862.20;;;21.70
69545;BMP180;56766;52.260;20.746;2023-09-19T14:25:05;99856.40;;;21.70
69545;BMP180;56766;52.260;20.746;2023-09-19T14:27:32;99855.00;;;21.70
69545;BMP180;56766;52.260;20.746;2023-09-19T14:29:59;99860.80;;;21.80
69545;BMP180;56766;52.260;20.746;2023-09-19T14:32:25;99857.60;;;21.80
69545;BMP180;56766;52.260;20.746;2023-09-19T14:34:52;99867.60;;;21.88
69545;BMP180;56766;52.260;20.746;2023-09-19T14:37:19;99867.20;;;21.90
69545;BMP180;56766;52.260;20.746;2023-09-19T14:39:47;99855.00;;;21.90
69545;BMP180;56766;52.260;20.746;2023-09-19T14:42:14;99861.40;;;22.00